Portada
METAR-TAF:

METAR-TAF

Aeroports :

Talara, Perú

latitud: 04-34S, longitud: 081-15W, altitud: 85 m

Observació

L'informe es va fer fa 54 minuts, a les 18:00 UTC
Vent 12 kt del Sud/Sud-Oest
Temperatura 26°C
Humitat 58%
Pressió 1011 hPa
Visibilitat 10 km o més
sense núvols per sota de 1500 mi sense presència de cumulonimbus.

METAR: SPYL 181800Z 20012KT CAVOK 26/17 Q1011 RMK BIRD HAZARD RWY 17/35 PP000

Hora: 13:54 (18:54 UTC)

Pronòstic

L'informe es va fer fa 1 hora i 54 minuts, a les 17:00 UTC
Pronòstic vàlid del 18 a les 18 UTC al 19 a les 18 UTC
Vent 12 kt del Sud/Sud-Oest
Visibilitat 10 km o més
sense núvols per sota de 1500 mi sense presència de cumulonimbus.
Evolucionant progressivament
l' 19 a les 12 UTC al 19 a les 14 UTC
Vent 17 kt del Sud/Sud-Est

TAF: SPYL 181700Z 1818/1918 20012KT CAVOK TX28/1819Z TN18/1911Z BECMG 1912/1914 15017KT

Observacions i pronòstics meteorològics de més de 4000 aeroports (METAR i TAF).

Les estacions disponibles són els punts grocs i vermells al mapa.

Posi el ratolí al punt desitjat per veure el nom de l'estació.

Feu clic per veure les observacions i els pronòstics meteorològics.

Per canviar el mapa: feu clic els botons verds amb una creu de color negre per apropar; al botó verd amb un guió per allunyar la imatge; o en les fletxes verdes per a mapes adjacents.


METAR-TAF: